Time;durP1;ratioP1;P1;durP2;ratioP2;P2;SDS_P1;SDS_P2;PMS_P1;PMS_P2;Temp;Humidity;BMP_temperature;BMP_pressure;BME280_temperature;BME280_humidity;BME280_pressure;Samples;Min_cycle;Max_cycle;Signal;HPM_P1;HPM_P2
2021/05/21 00:02:06;;;;;;;0.10;0.10;;;;;;;14.50;42.31;98454.13;5075916;28;20461;-63
2021/05/21 00:04:31;;;;;;;0.20;0.20;;;;;;;14.57;42.11;98457.47;5075697;28;20036;-61
2021/05/21 00:06:57;;;;;;;0.30;0.30;;;;;;;14.66;42.12;98452.28;5075356;28;20079;-60
2021/05/21 00:09:23;;;;;;;0.20;0.20;;;;;;;14.79;41.79;98459.25;5075858;28;20029;-59
2021/05/21 00:11:48;;;;;;;0.10;0.10;;;;;;;14.94;41.76;98462.03;5075538;28;20033;-59
2021/05/21 00:14:14;;;;;;;0.15;0.15;;;;;;;15.46;41.00;98451.06;5075481;28;20029;-60
2021/05/21 00:16:40;;;;;;;0.20;0.20;;;;;;;16.67;38.92;98458.66;5075583;28;20067;-59
2021/05/21 00:19:06;;;;;;;0.10;0.10;;;;;;;18.44;35.87;98457.91;5075643;28;20035;-59
2021/05/21 00:21:32;;;;;;;0.10;0.10;;;;;;;20.17;33.66;98452.09;5057749;28;20028;-59
2021/05/21 00:23:58;;;;;;;0.10;0.10;;;;;;;21.73;31.61;98451.28;5057301;28;20036;-59
2021/05/21 00:26:23;;;;;;;0.10;0.10;;;;;;;23.15;30.44;98451.66;5075166;28;20028;-59
2021/05/21 00:28:49;;;;;;;0.10;0.10;;;;;;;24.40;29.02;98439.66;5074711;28;20025;-59
2021/05/21 00:31:15;;;;;;;0.10;0.10;;;;;;;25.57;28.37;98445.94;5075438;28;20041;-60
2021/05/21 00:33:41;;;;;;;0.20;0.20;;;;;;;26.62;27.27;98450.50;5075831;28;20116;-60
2021/05/21 00:36:07;;;;;;;0.20;0.20;;;;;;;27.53;26.66;98447.41;5075316;28;20028;-60
2021/05/21 00:38:33;;;;;;;0.10;0.10;;;;;;;28.28;26.36;98443.13;5057269;28;20037;-60
2021/05/21 00:41:00;;;;;;;0.22;0.22;;;;;;;28.90;26.14;98442.69;5056916;28;20044;-60
2021/05/21 00:43:26;;;;;;;0.10;0.10;;;;;;;29.40;26.13;98447.88;5057169;28;20028;-60
2021/05/21 00:45:52;;;;;;;0.10;0.10;;;;;;;29.84;25.97;98453.28;5075127;28;20090;-58
2021/05/21 00:48:17;;;;;;;0.70;0.55;;;;;;;30.22;26.01;98452.44;5074889;28;20086;-59
2021/05/21 00:50:43;;;;;;;0.25;0.25;;;;;;;30.79;25.40;98451.03;5074763;28;20494;-59
2021/05/21 00:53:11;;;;;;;0.10;0.10;;;;;;;31.28;25.36;98450.22;5074806;28;20028;-62
2021/05/21 00:55:37;;;;;;;0.10;0.10;;;;;;;31.79;24.92;98457.41;5075214;28;20529;-63
2021/05/21 00:58:03;;;;;;;0.10;0.10;;;;;;;32.35;24.84;98452.81;5075117;28;20060;-63
2021/05/21 01:00:30;;;;;;;0.03;0.03;;;;;;;32.83;24.58;98447.19;5074430;28;20123;-63
2021/05/21 01:02:55;;;;;;;0.10;0.10;;;;;;;33.27;24.46;98445.50;5074566;28;20032;-62
2021/05/21 01:05:21;;;;;;;0.00;0.00;;;;;;;33.76;23.72;98442.53;5075058;28;20436;-63
2021/05/21 01:07:47;;;;;;;0.05;0.05;;;;;;;34.22;23.60;98451.22;5069118;28;20055;-62
2021/05/21 01:10:13;;;;;;;0.00;0.00;;;;;;;34.62;23.21;98448.47;5074402;28;20036;-63
2021/05/21 01:12:39;;;;;;;0.10;0.10;;;;;;;35.06;23.03;98447.28;5074705;28;20387;-62
2021/05/21 01:15:06;;;;;;;0.43;0.43;;;;;;;35.51;22.71;98438.22;5074563;28;20052;-61
2021/05/21 01:17:32;;;;;;;0.10;0.10;;;;;;;35.90;22.61;98443.03;5074606;28;20064;-63
2021/05/21 01:19:58;;;;;;;0.00;0.00;;;;;;;36.27;22.43;98444.44;5074416;28;20028;-62
2021/05/21 01:22:24;;;;;;;0.00;0.00;;;;;;;36.66;22.13;98445.44;5074514;28;20065;-62
2021/05/21 01:24:50;;;;;;;0.20;0.20;;;;;;;37.00;21.96;98453.34;5074085;28;20025;-62
2021/05/21 01:27:17;;;;;;;0.00;0.00;;;;;;;37.30;22.04;98449.81;5074703;28;20390;-63
2021/05/21 01:29:43;;;;;;;0.00;0.00;;;;;;;37.58;21.62;98455.69;5073998;28;20040;-62
2021/05/21 01:32:11;;;;;;;0.10;0.10;;;;;;;37.84;21.50;98454.97;5072879;28;20516;-62
2021/05/21 01:34:38;;;;;;;0.10;0.10;;;;;;;38.16;21.27;98445.16;5072764;28;20036;-62
2021/05/21 01:37:13;;;;;;;0.10;0.10;;;;;;;38.50;21.26;98443.44;5074140;28;20029;-62
2021/05/21 01:39:41;;;;;;;0.13;0.13;;;;;;;38.61;21.36;98449.84;5073816;28;20054;-62
2021/05/21 01:42:09;;;;;;;0.00;0.00;;;;;;;38.62;21.22;98451.47;5073791;28;20032;-62
2021/05/21 01:44:35;;;;;;;0.25;0.25;;;;;;;38.77;21.12;98462.72;5074055;28;20024;-62
2021/05/21 01:47:01;;;;;;;0.10;0.10;;;;;;;39.06;21.11;98466.75;5073821;28;20521;-62
2021/05/21 01:49:26;;;;;;;0.00;0.00;;;;;;;39.23;21.05;98461.16;5073116;28;20044;-62
2021/05/21 01:51:59;;;;;;;0.00;0.00;;;;;;;39.16;21.23;98452.66;5073419;28;20028;-62
2021/05/21 01:54:28;;;;;;;0.10;0.10;;;;;;;39.24;20.94;98448.41;5071903;28;20524;-63
2021/05/21 01:56:54;;;;;;;0.10;0.10;;;;;;;39.51;20.98;98459.00;5069590;28;20301;-61
2021/05/21 01:59:26;;;;;;;0.03;0.03;;;;;;;39.93;20.33;98454.47;5071923;28;20555;-59
2021/05/21 02:01:53;;;;;;;0.10;0.10;;;;;;;40.29;20.25;98453.69;5069136;28;20557;-60
2021/05/21 02:04:35;;;;;;;0.10;0.10;;;;;;;40.32;20.41;98457.75;5071706;28;20027;-61
2021/05/21 02:07:01;;;;;;;0.08;0.08;;;;;;;39.86;20.93;98468.19;5067958;28;20056;-60
2021/05/21 02:09:27;;;;;;;0.10;0.10;;;;;;;39.42;21.53;98460.38;5071634;28;20135;-61
2021/05/21 02:11:54;;;;;;;0.75;0.40;;;;;;;39.33;21.12;98454.41;5071580;28;20028;-60
2021/05/21 02:14:20;;;;;;;0.10;0.10;;;;;;;39.60;21.04;98460.03;5071473;28;20378;-60
2021/05/21 02:16:46;;;;;;;0.10;0.10;;;;;;;39.98;20.78;98464.63;5071471;28;20111;-60
2021/05/21 02:19:12;;;;;;;0.10;0.10;;;;;;;40.49;20.34;98461.50;5070348;28;20028;-60
2021/05/21 02:21:40;;;;;;;0.10;0.10;;;;;;;41.14;19.77;98457.84;5071269;28;20034;-61
2021/05/21 02:24:06;;;;;;;0.05;0.05;;;;;;;41.71;19.29;98466.19;5071203;28;20036;-60
2021/05/21 02:26:36;;;;;;;0.10;0.10;;;;;;;42.16;19.05;98462.44;5066981;28;20029;-62
2021/05/21 02:29:02;;;;;;;0.10;0.10;;;;;;;42.60;18.79;98478.47;5066765;28;20040;-61
2021/05/21 02:31:28;;;;;;;0.03;0.03;;;;;;;42.92;18.48;98479.47;5066953;28;20031;-60
2021/05/21 02:33:54;;;;;;;0.10;0.10;;;;;;;43.24;18.28;98475.50;5065433;28;20029;-60
2021/05/21 02:36:19;;;;;;;0.10;0.10;;;;;;;43.53;18.36;98475.31;5069532;28;20031;-60
2021/05/21 02:38:45;;;;;;;0.10;0.10;;;;;;;43.81;18.27;98461.09;5051753;28;20029;-60
2021/05/21 02:41:11;;;;;;;0.10;0.10;;;;;;;44.13;17.71;98466.94;5051280;28;20041;-61
2021/05/21 02:43:37;;;;;;;0.10;0.10;;;;;;;44.42;17.63;98455.91;5053134;28;20379;-61
2021/05/21 02:46:03;;;;;;;0.20;0.20;;;;;;;44.55;18.03;98454.97;5051265;28;20039;-60
2021/05/21 02:48:28;;;;;;;0.10;0.10;;;;;;;44.68;17.56;98460.69;5052885;28;20159;-60
2021/05/21 02:50:54;;;;;;;0.10;0.10;;;;;;;44.81;17.27;98458.47;5052749;28;20060;-60
2021/05/21 02:53:20;;;;;;;0.10;0.10;;;;;;;44.97;17.49;98457.41;5061371;28;20032;-61
2021/05/21 02:55:46;;;;;;;0.10;0.10;;;;;;;45.20;17.74;98437.81;5071116;28;20036;-59
2021/05/21 02:58:12;;;;;;;0.15;0.15;;;;;;;45.42;17.65;98434.75;5072688;28;20029;-59
2021/05/21 03:00:37;;;;;;;0.10;0.10;;;;;;;45.59;17.49;98436.09;5071699;28;20505;-60
2021/05/21 03:03:03;;;;;;;0.10;0.10;;;;;;;45.71;17.40;98430.59;5072868;28;20024;-59
2021/05/21 03:05:29;;;;;;;0.10;0.10;;;;;;;45.91;17.44;98427.19;5072627;28;20036;-59
2021/05/21 03:07:56;;;;;;;0.10;0.10;;;;;;;46.19;17.03;98419.25;5072385;28;20472;-60
2021/05/21 03:10:23;;;;;;;0.10;0.10;;;;;;;46.51;16.88;98419.78;5072306;28;20416;-60
2021/05/21 03:12:50;;;;;;;0.10;0.10;;;;;;;46.78;16.46;98418.03;5072653;28;20028;-59
2021/05/21 03:15:16;;;;;;;0.10;0.10;;;;;;;47.08;16.21;98421.13;5054427;28;20052;-60
2021/05/21 03:17:42;;;;;;;0.10;0.10;;;;;;;48.44;15.43;98429.56;5072197;28;20037;-60
2021/05/21 03:20:08;;;;;;;0.10;0.10;;;;;;;48.97;15.31;98416.09;5054161;28;20027;-60
2021/05/21 03:22:34;;;;;;;0.10;0.10;;;;;;;49.01;15.54;98422.50;5072498;28;20040;-60
2021/05/21 03:25:03;;;;;;;0.10;0.10;;;;;;;49.08;15.54;98425.00;5072292;28;20020;-60
2021/05/21 03:27:31;;;;;;;0.10;0.10;;;;;;;49.08;15.71;98410.41;5072341;28;20409;-61
2021/05/21 03:29:58;;;;;;;0.20;0.20;;;;;;;49.15;15.67;98417.91;5072343;28;20066;-60
2021/05/21 03:32:24;;;;;;;0.17;0.17;;;;;;;49.14;15.85;98417.13;5061581;28;20087;-59
2021/05/21 03:34:50;;;;;;;0.20;0.20;;;;;;;49.18;15.81;98428.53;5052023;28;20025;-61
2021/05/21 03:37:15;;;;;;;0.20;0.20;;;;;;;49.22;15.77;98429.16;5052631;28;20029;-60
2021/05/21 03:39:41;;;;;;;0.20;0.20;;;;;;;49.06;16.04;98424.69;5052035;28;20036;-59
2021/05/21 03:42:07;;;;;;;0.20;0.20;;;;;;;48.91;16.09;98425.53;5052073;28;20033;-60
2021/05/21 03:44:33;;;;;;;0.20;0.20;;;;;;;48.75;16.38;98420.25;5052390;28;20479;-60
2021/05/21 03:47:02;;;;;;;0.20;0.20;;;;;;;48.45;16.19;98419.53;5052354;28;20116;-60
2021/05/21 03:49:28;;;;;;;0.10;0.10;;;;;;;48.38;16.32;98418.59;5051853;28;20029;-60
2021/05/21 03:51:54;;;;;;;0.20;0.20;;;;;;;48.67;16.44;98431.53;5033928;28;20029;-60
2021/05/21 03:54:21;;;;;;;0.20;0.20;;;;;;;48.93;16.21;98430.88;5033678;28;20021;-60
2021/05/21 03:56:47;;;;;;;0.10;0.10;;;;;;;49.02;16.05;98433.66;5052268;28;20036;-61
2021/05/21 03:59:13;;;;;;;0.10;0.10;;;;;;;49.13;15.99;98427.16;5051798;28;20025;-60
2021/05/21 04:01:39;;;;;;;0.10;0.10;;;;;;;49.27;15.82;98423.41;5051970;28;20036;-60
2021/05/21 04:04:05;;;;;;;0.10;0.10;;;;;;;49.52;15.62;98414.41;5033869;28;20060;-59
2021/05/21 04:06:32;;;;;;;0.20;0.20;;;;;;;49.79;15.23;98416.84;5051671;28;20045;-59
2021/05/21 04:08:58;;;;;;;0.20;0.20;;;;;;;50.00;15.30;98416.00;5051723;28;20041;-60
2021/05/21 04:11:24;;;;;;;0.20;0.20;;;;;;;50.08;15.27;98425.91;5052258;28;20033;-60
2021/05/21 04:13:50;;;;;;;0.20;0.20;;;;;;;50.13;15.18;98428.06;5055221;28;20040;-60
2021/05/21 04:16:16;;;;;;;0.20;0.20;;;;;;;50.05;15.25;98429.84;5055891;28;20382;-60
2021/05/21 04:18:42;;;;;;;0.20;0.20;;;;;;;50.02;15.26;98417.09;5055195;28;20044;-60
2021/05/21 04:21:07;;;;;;;0.20;0.20;;;;;;;49.89;15.31;98419.63;5056212;28;20041;-61
2021/05/21 04:23:37;;;;;;;0.10;0.10;;;;;;;49.83;15.27;98422.47;5055597;28;20025;-60
2021/05/21 04:26:03;;;;;;;0.20;0.20;;;;;;;49.92;15.36;98419.41;5055181;28;20060;-60
2021/05/21 04:28:29;;;;;;;0.28;0.28;;;;;;;49.99;15.27;98423.16;5055194;28;20063;-60
2021/05/21 04:30:55;;;;;;;0.20;0.20;;;;;;;50.09;15.18;98424.59;5055237;28;20498;-60
2021/05/21 04:33:20;;;;;;;0.20;0.20;;;;;;;49.99;15.19;98426.91;5055450;28;20035;-60
2021/05/21 04:35:46;;;;;;;0.20;0.20;;;;;;;49.99;15.13;98415.22;5055532;28;20021;-60
2021/05/21 04:38:12;;;;;;;0.20;0.20;;;;;;;50.17;14.63;98411.13;5055607;28;20128;-61
2021/05/21 04:40:38;;;;;;;0.20;0.20;;;;;;;50.28;14.82;98410.44;5055050;28;20067;-61
2021/05/21 04:43:03;;;;;;;0.20;0.20;;;;;;;50.42;14.65;98408.72;5056060;28;20029;-61
2021/05/21 04:45:29;;;;;;;0.30;0.30;;;;;;;50.57;14.61;98409.31;5055508;28;20095;-61
2021/05/21 04:47:55;;;;;;;0.20;0.20;;;;;;;50.72;14.38;98406.25;5057834;28;20371;-61
2021/05/21 04:50:21;;;;;;;0.20;0.20;;;;;;;50.90;14.33;98404.22;5055145;28;20406;-60
2021/05/21 04:52:48;;;;;;;0.20;0.20;;;;;;;50.88;14.28;98401.84;5054738;28;20446;-60
2021/05/21 04:55:14;;;;;;;0.20;0.20;;;;;;;50.95;14.19;98397.63;5054631;28;20112;-60
2021/05/21 04:57:40;;;;;;;0.20;0.20;;;;;;;50.92;14.32;98395.72;5054775;28;20120;-61
2021/05/21 05:00:06;;;;;;;0.20;0.20;;;;;;;50.70;14.31;98382.63;5054566;28;20025;-61
2021/05/21 05:02:33;;;;;;;0.30;0.30;;;;;;;50.65;14.21;98400.91;5036688;28;20063;-61
2021/05/21 05:04:58;;;;;;;0.20;0.20;;;;;;;50.53;14.37;98408.75;5054418;28;20029;-61
2021/05/21 05:07:24;;;;;;;0.30;0.30;;;;;;;50.42;14.40;98400.72;5054432;28;20563;-60
2021/05/21 05:09:50;;;;;;;0.30;0.30;;;;;;;50.58;13.97;98410.13;5036356;28;20028;-60
2021/05/21 05:12:16;;;;;;;0.28;0.28;;;;;;;50.59;14.24;98405.88;5036500;28;20086;-60
2021/05/21 05:14:41;;;;;;;0.20;0.20;;;;;;;50.51;14.05;98398.94;5054686;28;20037;-61
2021/05/21 05:17:07;;;;;;;0.20;0.20;;;;;;;50.19;14.28;98396.81;5054226;28;20475;-61
2021/05/21 05:19:33;;;;;;;0.20;0.20;;;;;;;50.18;14.33;98403.16;5036297;28;20509;-61
2021/05/21 05:21:59;;;;;;;1.00;0.77;;;;;;;50.33;13.94;98392.19;5054649;28;20580;-61
2021/05/21 05:24:26;;;;;;;0.20;0.20;;;;;;;50.45;13.65;98390.94;5053016;28;20025;-61
2021/05/21 05:26:52;;;;;;;0.20;0.20;;;;;;;50.44;13.68;98400.22;5054352;28;20036;-61
2021/05/21 05:29:18;;;;;;;0.20;0.20;;;;;;;49.97;13.63;98398.22;5054200;28;20029;-63
2021/05/21 05:31:46;;;;;;;0.20;0.20;;;;;;;49.37;14.16;98376.59;5053971;28;20043;-61
2021/05/21 05:34:13;;;;;;;0.17;0.17;;;;;;;48.20;15.06;98381.81;5053882;28;20037;-61
2021/05/21 05:36:40;;;;;;;0.20;0.20;;;;;;;45.57;16.63;98377.78;5054240;28;20033;-61
2021/05/21 05:39:06;;;;;;;0.10;0.10;;;;;;;42.27;19.02;98381.34;5053724;28;20033;-60
2021/05/21 05:41:32;;;;;;;0.10;0.10;;;;;;;39.69;20.63;98379.00;5035823;28;20104;-61
2021/05/21 05:43:58;;;;;;;0.10;0.10;;;;;;;37.77;21.99;98379.78;5053861;28;20082;-60
2021/05/21 05:46:24;;;;;;;0.32;0.10;;;;;;;36.17;22.96;98381.66;5053855;28;20028;-65
2021/05/21 05:48:50;;;;;;;0.10;0.10;;;;;;;34.78;23.98;98367.44;5054080;28;20025;-60
2021/05/21 05:51:16;;;;;;;0.10;0.10;;;;;;;33.73;24.35;98367.22;5036068;28;20032;-60
2021/05/21 05:53:42;;;;;;;0.10;0.10;;;;;;;32.83;24.77;98372.44;5053955;28;20119;-60
2021/05/21 05:56:09;;;;;;;0.80;0.10;;;;;;;32.05;24.85;98361.97;5054006;28;20490;-60
2021/05/21 05:58:35;;;;;;;0.10;0.10;;;;;;;31.40;24.93;98367.69;5053568;28;20036;-60
2021/05/21 06:01:01;;;;;;;0.20;0.20;;;;;;;30.92;25.05;98362.56;5053070;28;20064;-61
2021/05/21 06:03:30;;;;;;;0.10;0.10;;;;;;;30.49;25.10;98363.91;5053522;28;20060;-60
2021/05/21 06:05:56;;;;;;;0.10;0.10;;;;;;;30.11;24.79;98357.16;5053804;28;20406;-61
2021/05/21 06:08:22;;;;;;;0.30;0.30;;;;;;;29.76;24.82;98350.44;5053248;28;20106;-61
2021/05/21 06:10:50;;;;;;;1.02;0.10;;;;;;;29.45;24.78;98349.44;5053715;28;20028;-61
2021/05/21 06:13:16;;;;;;;0.13;0.13;;;;;;;29.15;24.63;98357.63;5053436;28;20025;-60
2021/05/21 06:15:41;;;;;;;0.10;0.10;;;;;;;28.89;24.67;98356.28;5053350;28;20040;-60
2021/05/21 06:18:07;;;;;;;0.20;0.20;;;;;;;28.74;24.74;98349.47;5053212;28;20163;-60
2021/05/21 06:20:35;;;;;;;0.00;0.00;;;;;;;28.61;24.31;98337.47;5053128;28;20406;-59
2021/05/21 06:23:03;;;;;;;0.05;0.05;;;;;;;28.51;24.20;98340.00;5035603;28;20033;-60
2021/05/21 06:28:06;;;;;;;0.15;0.15;;;;;;;28.37;23.97;98332.00;5052961;28;20060;-61
2021/05/21 06:30:32;;;;;;;0.00;0.00;;;;;;;28.22;23.81;98325.97;5052756;28;20517;-60
2021/05/21 06:32:59;;;;;;;0.17;0.17;;;;;;;28.06;23.86;98323.19;5034773;28;20123;-61
2021/05/21 06:35:26;;;;;;;0.10;0.10;;;;;;;27.93;23.65;98324.38;5052662;28;20118;-61
2021/05/21 06:37:52;;;;;;;0.00;0.00;;;;;;;27.84;23.86;98324.59;5052574;28;20044;-60
2021/05/21 06:40:19;;;;;;;0.00;0.00;;;;;;;27.79;23.64;98327.66;5052992;28;20498;-61
2021/05/21 06:42:44;;;;;;;0.10;0.10;;;;;;;27.75;23.58;98327.59;5052843;28;20033;-61
2021/05/21 06:45:11;;;;;;;0.10;0.10;;;;;;;27.72;23.30;98319.81;5052877;28;20044;-60
2021/05/21 06:47:37;;;;;;;0.00;0.00;;;;;;;27.66;23.34;98320.47;5052383;28;20115;-60
2021/05/21 06:50:04;;;;;;;0.30;0.20;;;;;;;27.58;23.01;98314.63;5052672;28;20123;-61
2021/05/21 06:52:30;;;;;;;0.10;0.10;;;;;;;27.53;23.21;98317.72;5052407;28;20033;-61
2021/05/21 06:54:56;;;;;;;0.20;0.20;;;;;;;27.48;22.97;98317.97;5052348;28;20086;-61
2021/05/21 06:57:22;;;;;;;0.10;0.10;;;;;;;27.39;22.95;98317.31;5056205;28;20036;-61
2021/05/21 06:59:48;;;;;;;0.10;0.10;;;;;;;27.34;23.33;98309.09;5069924;28;20488;-61
2021/05/21 07:02:14;;;;;;;0.10;0.10;;;;;;;27.29;23.30;98304.50;5047887;28;20036;-62
2021/05/21 07:04:40;;;;;;;0.00;0.00;;;;;;;27.20;23.35;98309.47;5034825;28;20037;-61
2021/05/21 07:07:06;;;;;;;0.00;0.00;;;;;;;27.16;23.14;98300.91;5069554;28;20052;-60
2021/05/21 07:09:32;;;;;;;0.55;0.20;;;;;;;27.21;23.07;98305.50;5047605;28;20044;-61
2021/05/21 07:11:58;;;;;;;0.52;0.50;;;;;;;27.19;23.15;98300.19;5073105;28;20062;-60
2021/05/21 07:14:24;;;;;;;0.10;0.10;;;;;;;27.10;22.87;98299.53;5071022;28;20024;-60
2021/05/21 07:16:50;;;;;;;0.08;0.08;;;;;;;27.01;22.88;98302.50;5069942;28;20067;-60
2021/05/21 07:19:18;;;;;;;0.10;0.10;;;;;;;27.00;22.82;98305.66;5085897;28;20035;-60
2021/05/21 07:21:45;;;;;;;0.00;0.00;;;;;;;27.01;23.07;98296.03;5063613;28;21381;-64
2021/05/21 07:24:11;;;;;;;1.55;0.95;;;;;;;26.97;22.91;98292.28;5068922;28;20494;-60
2021/05/21 07:26:37;;;;;;;0.30;0.30;;;;;;;26.95;23.20;98303.13;5069304;28;20115;-60
2021/05/21 07:29:04;;;;;;;0.00;0.00;;;;;;;26.96;23.03;98283.03;5080807;28;20111;-61
2021/05/21 07:31:30;;;;;;;0.63;0.63;;;;;;;26.98;23.14;98291.94;5070841;28;20040;-61
2021/05/21 07:33:58;;;;;;;0.43;0.32;;;;;;;26.97;22.82;98295.13;5038555;28;20044;-61
2021/05/21 07:36:28;;;;;;;0.10;0.10;;;;;;;26.97;22.85;98292.28;5065429;28;20070;-60
2021/05/21 07:38:56;;;;;;;0.13;0.13;;;;;;;27.00;22.82;98289.59;5062066;28;20064;-61
2021/05/21 07:41:24;;;;;;;0.10;0.10;;;;;;;26.97;23.15;98281.84;5070756;28;20043;-64
2021/05/21 07:43:53;;;;;;;0.32;0.32;;;;;;;26.97;23.10;98295.13;5066474;28;20044;-59
2021/05/21 07:46:20;;;;;;;0.10;0.10;;;;;;;26.97;22.85;98283.84;5055926;28;20032;-61
2021/05/21 07:48:46;;;;;;;0.00;0.00;;;;;;;26.92;22.94;98288.53;5093113;28;20428;-63
2021/05/21 07:51:12;;;;;;;0.00;0.00;;;;;;;26.90;22.87;98288.09;5058935;28;20028;-61
2021/05/21 07:53:38;;;;;;;0.00;0.00;;;;;;;26.92;23.17;98285.72;5072302;28;20032;-62
2021/05/21 07:56:05;;;;;;;0.10;0.10;;;;;;;26.91;22.89;98278.47;5053997;28;20032;-61
2021/05/21 07:58:31;;;;;;;0.20;0.10;;;;;;;26.85;22.89;98279.06;5088625;28;20408;-61
2021/05/21 08:00:57;;;;;;;0.50;0.20;;;;;;;26.81;22.88;98276.16;5059293;28;20119;-61
2021/05/21 08:03:24;;;;;;;0.00;0.00;;;;;;;26.80;23.24;98271.69;5080945;28;20052;-60
2021/05/21 08:05:50;;;;;;;0.20;0.20;;;;;;;26.80;23.08;98268.06;5092530;28;20116;-61
2021/05/21 08:08:21;;;;;;;0.10;0.10;;;;;;;26.77;23.04;98261.16;5079934;28;20599;-61
2021/05/21 08:10:56;;;;;;;0.20;0.20;;;;;;;26.77;22.68;98261.16;5067681;28;20055;-61
2021/05/21 08:13:23;;;;;;;0.20;0.20;;;;;;;26.78;22.75;98264.78;5070958;28;20457;-61
2021/05/21 08:15:49;;;;;;;0.30;0.30;;;;;;;26.79;22.84;98260.78;5072768;28;20398;-60
2021/05/21 08:18:16;;;;;;;0.20;0.20;;;;;;;26.83;22.92;98262.53;5070959;28;20482;-60
2021/05/21 08:20:45;;;;;;;0.00;0.00;;;;;;;26.86;22.60;98261.00;5070685;28;20036;-60
2021/05/21 08:23:14;;;;;;;0.50;0.28;;;;;;;26.89;22.88;98255.47;5072771;28;20486;-60
2021/05/21 08:25:41;;;;;;;0.38;0.35;;;;;;;26.90;22.78;98259.94;5071268;28;20032;-61
2021/05/21 08:28:07;;;;;;;0.10;0.10;;;;;;;26.85;22.86;98256.53;5089007;28;20028;-61
2021/05/21 08:30:33;;;;;;;0.00;0.00;;;;;;;26.84;22.90;98252.06;5091289;28;20034;-60
2021/05/21 08:32:58;;;;;;;0.10;0.10;;;;;;;26.81;22.75;98248.00;5071718;28;20036;-60
2021/05/21 08:35:25;;;;;;;0.20;0.20;;;;;;;26.80;22.66;98237.91;5068221;28;20032;-60
2021/05/21 08:37:52;;;;;;;0.03;0.03;;;;;;;26.81;22.80;98239.53;5071954;28;20037;-60
2021/05/21 08:40:25;;;;;;;0.10;0.10;;;;;;;26.84;22.97;98241.66;5072331;28;20084;-59
2021/05/21 08:42:58;;;;;;;0.10;0.10;;;;;;;26.85;22.56;98234.81;5068849;28;20048;-60
2021/05/21 08:45:31;;;;;;;0.00;0.00;;;;;;;26.87;22.62;98240.94;5070523;28;20021;-61
2021/05/21 08:47:58;;;;;;;0.10;0.10;;;;;;;26.88;22.50;98230.47;5068407;28;20044;-63
2021/05/21 08:50:25;;;;;;;0.00;0.00;;;;;;;26.86;22.56;98225.19;5071746;28;20032;-62
2021/05/21 08:52:51;;;;;;;0.00;0.00;;;;;;;26.86;23.03;98236.47;5063463;28;20038;-59
2021/05/21 08:55:17;;;;;;;0.10;0.10;;;;;;;26.86;22.68;98232.84;5074969;28;20020;-60
2021/05/21 08:57:44;;;;;;;0.00;0.00;;;;;;;26.86;22.87;98233.66;5070818;28;20590;-60
2021/05/21 09:00:11;;;;;;;0.10;0.10;;;;;;;26.86;22.54;98232.84;5075225;28;20024;-62
2021/05/21 09:02:38;;;;;;;0.10;0.10;;;;;;;26.82;22.68;98234.72;5055678;28;20032;-59
2021/05/21 09:05:06;;;;;;;0.10;0.10;;;;;;;26.81;23.05;98225.47;5065749;28;20040;-60
2021/05/21 09:07:34;;;;;;;0.00;0.00;;;;;;;26.82;22.55;98215.00;5066451;28;20124;-61
2021/05/21 09:10:17;;;;;;;0.00;0.00;;;;;;;26.82;22.66;98220.63;5069605;28;20063;-62
2021/05/21 09:12:51;;;;;;;0.10;0.10;;;;;;;26.74;22.91;98202.72;5051463;28;20612;-60
2021/05/21 09:15:21;;;;;;;0.00;0.00;;;;;;;26.83;22.63;98225.09;5052881;28;20107;-62
2021/05/21 09:17:57;;;;;;;0.10;0.10;;;;;;;26.86;22.52;98216.75;5070129;28;20043;-61
2021/05/21 09:20:27;;;;;;;0.10;0.10;;;;;;;26.89;22.35;98221.66;5050145;28;20068;-61
2021/05/21 09:23:08;;;;;;;0.00;0.00;;;;;;;26.90;22.35;98217.66;5046988;28;20036;-62
2021/05/21 09:25:47;;;;;;;0.10;0.10;;;;;;;26.90;22.28;98214.84;5083908;28;20043;-60
2021/05/21 09:28:37;;;;;;;0.00;0.00;;;;;;;26.91;22.27;98212.84;5049205;28;20040;-61
2021/05/21 09:31:20;;;;;;;0.25;0.20;;;;;;;26.93;22.50;98211.31;5070476;28;20024;-61
2021/05/21 09:33:49;;;;;;;0.10;0.10;;;;;;;26.93;22.19;98200.06;5075727;28;20493;-60
2021/05/21 09:36:31;;;;;;;0.00;0.00;;;;;;;26.95;22.57;98210.97;5070613;28;20036;-62
2021/05/21 09:38:58;;;;;;;0.65;0.47;;;;;;;26.96;22.48;98214.59;5068438;28;20037;-62
2021/05/21 09:41:25;;;;;;;0.20;0.20;;;;;;;26.98;22.02;98206.63;5070320;28;20039;-61
2021/05/21 09:43:56;;;;;;;0.10;0.10;;;;;;;26.99;22.00;98200.63;5052189;28;20032;-61
2021/05/21 09:46:23;;;;;;;0.00;0.00;;;;;;;27.01;22.07;98198.25;5067789;28;20036;-61
2021/05/21 09:48:49;;;;;;;0.00;0.00;;;;;;;27.03;22.10;98204.34;5070025;28;20032;-61
2021/05/21 09:51:16;;;;;;;0.00;0.00;;;;;;;27.02;22.40;98194.25;5070052;28;20028;-61
2021/05/21 09:53:46;;;;;;;0.10;0.10;;;;;;;27.03;22.05;98206.34;5070296;28;20028;-61
2021/05/21 09:56:20;;;;;;;0.63;0.28;;;;;;;27.06;22.34;98197.16;5090374;28;20505;-61
2021/05/21 09:58:47;;;;;;;0.05;0.05;;;;;;;27.08;21.83;98192.00;5054794;28;20440;-62
2021/05/21 10:01:19;;;;;;;0.20;0.20;;;;;;;27.13;21.87;98191.72;5050326;28;20036;-62
2021/05/21 10:03:53;;;;;;;0.10;0.10;;;;;;;27.15;21.94;98186.56;5091144;28;20046;-61
2021/05/21 10:06:21;;;;;;;0.00;0.00;;;;;;;27.13;21.84;98183.28;5090709;28;20032;-62
2021/05/21 10:08:48;;;;;;;0.10;0.10;;;;;;;27.12;21.84;98183.63;5090626;28;20043;-61
2021/05/21 10:11:15;;;;;;;0.10;0.10;;;;;;;27.14;21.79;98179.28;5090159;28;20043;-61
2021/05/21 10:13:46;;;;;;;0.10;0.10;;;;;;;27.17;21.65;98181.38;5069037;28;20024;-61
2021/05/21 10:16:14;;;;;;;0.00;0.00;;;;;;;27.19;22.14;98173.38;5090345;28;20036;-61
2021/05/21 10:18:45;;;;;;;0.00;0.00;;;;;;;27.22;21.82;98177.47;5086868;28;20055;-62
2021/05/21 10:21:11;;;;;;;0.10;0.10;;;;;;;27.22;22.09;98178.31;5070400;28;20102;-61
2021/05/21 10:23:39;;;;;;;0.10;0.10;;;;;;;27.21;21.68;98171.03;5071239;28;20558;-61
2021/05/21 10:26:17;;;;;;;0.00;0.00;;;;;;;27.24;21.96;98170.31;5090322;28;20032;-62
2021/05/21 10:28:46;;;;;;;0.10;0.10;;;;;;;27.24;21.76;98170.31;5079329;28;20477;-62
2021/05/21 10:31:14;;;;;;;0.05;0.05;;;;;;;27.24;21.77;98181.56;5090877;28;20081;-61
2021/05/21 10:33:43;;;;;;;0.25;0.25;;;;;;;27.26;21.89;98167.13;5090113;28;20576;-60
2021/05/21 10:36:23;;;;;;;0.20;0.20;;;;;;;27.28;21.82;98159.94;5086125;28;20021;-63
2021/05/21 10:39:08;;;;;;;0.75;0.20;;;;;;;27.35;21.38;98152.88;5069794;28;20042;-62
2021/05/21 10:41:35;;;;;;;0.05;0.05;;;;;;;27.37;21.54;98156.16;5069693;28;20036;-61
2021/05/21 10:44:01;;;;;;;0.10;0.10;;;;;;;27.39;21.57;98167.91;5052745;28;20028;-64
2021/05/21 10:46:28;;;;;;;0.10;0.10;;;;;;;27.44;21.28;98157.19;5069279;28;20033;-61
2021/05/21 10:48:59;;;;;;;0.08;0.08;;;;;;;27.46;21.48;98156.81;5066157;28;20131;-61
2021/05/21 10:51:28;;;;;;;0.10;0.10;;;;;;;27.45;21.27;98161.59;5065909;28;20054;-62
2021/05/21 10:54:26;;;;;;;0.20;0.20;;;;;;;27.47;21.54;98163.25;5048831;28;20028;-61
2021/05/21 10:56:55;;;;;;;0.10;0.10;;;;;;;27.49;21.26;98164.53;5067804;28;20048;-62
2021/05/21 10:59:21;;;;;;;0.00;0.00;;;;;;;27.51;21.52;98159.34;5068767;28;20032;-62
2021/05/21 11:01:48;;;;;;;0.30;0.30;;;;;;;27.50;21.45;98160.50;5077873;28;20043;-61
2021/05/21 11:04:18;;;;;;;0.10;0.10;;;;;;;27.47;21.49;98147.16;5066392;28;20463;-61
2021/05/21 11:06:45;;;;;;;0.13;0.13;;;;;;;27.47;21.55;98158.44;5069172;28;20040;-61
2021/05/21 11:09:19;;;;;;;0.00;0.00;;;;;;;27.48;21.34;98150.81;5066159;28;20028;-63
2021/05/21 11:11:47;;;;;;;0.15;0.15;;;;;;;27.48;21.67;98151.63;5061605;28;20036;-61
2021/05/21 11:14:30;;;;;;;0.10;0.10;;;;;;;27.48;21.70;98151.63;5051364;28;20033;-61
2021/05/21 11:17:17;;;;;;;0.10;0.10;;;;;;;27.48;21.34;98148.00;5064589;28;20064;-62
2021/05/21 11:19:52;;;;;;;0.10;0.10;;;;;;;27.44;21.53;98153.53;5069661;28;21283;-60
2021/05/21 11:22:25;;;;;;;0.10;0.10;;;;;;;27.43;21.62;98149.91;5070975;28;20131;-62
2021/05/21 11:25:04;;;;;;;0.08;0.08;;;;;;;27.43;21.60;98149.09;5071109;28;20041;-64
2021/05/21 11:27:32;;;;;;;0.00;0.00;;;;;;;27.43;21.27;98155.53;5055800;28;20401;-64
2021/05/21 11:30:00;;;;;;;0.52;0.32;;;;;;;27.43;21.75;98154.72;5068781;28;20117;-63
2021/05/21 11:32:27;;;;;;;0.10;0.10;;;;;;;27.43;21.45;98149.91;5067421;28;20032;-63
2021/05/21 11:34:53;;;;;;;0.10;0.10;;;;;;;27.48;21.22;98148.78;5073287;28;20129;-62
2021/05/21 11:37:27;;;;;;;0.10;0.10;;;;;;;27.53;21.68;98147.69;5053061;28;20028;-61
2021/05/21 11:39:55;;;;;;;0.00;0.00;;;;;;;27.54;21.45;98138.06;5070293;28;20513;-61